sensor_id;sensor_type;location;lat;lon;timestamp;temperature;humidity
53146;DHT22;39042;53.150;5.898;2023-11-19T00:00:43;12.00;99.90
53146;DHT22;39042;53.150;5.898;2023-11-19T00:03:09;12.00;99.90
53146;DHT22;39042;53.150;5.898;2023-11-19T00:05:36;12.00;99.90
53146;DHT22;39042;53.150;5.898;2023-11-19T00:08:02;12.00;99.90
53146;DHT22;39042;53.150;5.898;2023-11-19T00:10:28;12.00;99.90
53146;DHT22;39042;53.150;5.898;2023-11-19T00:12:54;12.00;99.90
53146;DHT22;39042;53.150;5.898;2023-11-19T00:15:20;12.00;99.90
53146;DHT22;39042;53.150;5.898;2023-11-19T00:17:47;12.00;99.90
53146;DHT22;39042;53.150;5.898;2023-11-19T00:20:20;12.10;99.90
53146;DHT22;39042;53.150;5.898;2023-11-19T00:22:48;12.10;99.90
53146;DHT22;39042;53.150;5.898;2023-11-19T00:25:17;12.20;99.90
53146;DHT22;39042;53.150;5.898;2023-11-19T00:27:43;12.20;99.90
53146;DHT22;39042;53.150;5.898;2023-11-19T00:30:12;12.20;99.90
53146;DHT22;39042;53.150;5.898;2023-11-19T00:32:39;12.30;99.90
53146;DHT22;39042;53.150;5.898;2023-11-19T00:35:06;12.30;99.90
53146;DHT22;39042;53.150;5.898;2023-11-19T00:37:33;12.30;99.90
53146;DHT22;39042;53.150;5.898;2023-11-19T00:39:59;12.30;99.90
53146;DHT22;39042;53.150;5.898;2023-11-19T00:42:25;12.40;99.90
53146;DHT22;39042;53.150;5.898;2023-11-19T00:44:51;12.40;99.90
53146;DHT22;39042;53.150;5.898;2023-11-19T00:47:17;12.40;99.90
53146;DHT22;39042;53.150;5.898;2023-11-19T00:49:47;12.40;99.90
53146;DHT22;39042;53.150;5.898;2023-11-19T00:52:15;12.40;99.90
53146;DHT22;39042;53.150;5.898;2023-11-19T00:54:42;12.40;99.90
53146;DHT22;39042;53.150;5.898;2023-11-19T00:57:08;12.40;99.90
53146;DHT22;39042;53.150;5.898;2023-11-19T00:59:33;12.30;99.90
53146;DHT22;39042;53.150;5.898;2023-11-19T01:01:59;12.30;99.90
53146;DHT22;39042;53.150;5.898;2023-11-19T01:04:35;12.30;99.90
53146;DHT22;39042;53.150;5.898;2023-11-19T01:07:02;12.40;99.90
53146;DHT22;39042;53.150;5.898;2023-11-19T01:09:32;12.40;99.90
53146;DHT22;39042;53.150;5.898;2023-11-19T01:12:11;12.30;99.90
53146;DHT22;39042;53.150;5.898;2023-11-19T01:14:40;12.30;99.90
53146;DHT22;39042;53.150;5.898;2023-11-19T02:08:27;11.90;99.90
53146;DHT22;39042;53.150;5.898;2023-11-19T02:10:52;11.80;99.90
53146;DHT22;39042;53.150;5.898;2023-11-19T02:13:22;11.80;99.90
53146;DHT22;39042;53.150;5.898;2023-11-19T02:15:48;11.80;99.90
53146;DHT22;39042;53.150;5.898;2023-11-19T02:20:44;11.80;99.90
53146;DHT22;39042;53.150;5.898;2023-11-19T02:23:12;11.80;99.90
53146;DHT22;39042;53.150;5.898;2023-11-19T02:25:39;11.80;99.90
53146;DHT22;39042;53.150;5.898;2023-11-19T02:28:06;11.80;99.90
53146;DHT22;39042;53.150;5.898;2023-11-19T02:30:32;11.70;99.90
53146;DHT22;39042;53.150;5.898;2023-11-19T02:32:59;11.70;99.90
53146;DHT22;39042;53.150;5.898;2023-11-19T02:35:27;11.60;99.90
53146;DHT22;39042;53.150;5.898;2023-11-19T02:37:57;11.60;99.90
53146;DHT22;39042;53.150;5.898;2023-11-19T02:40:23;11.60;99.90
53146;DHT22;39042;53.150;5.898;2023-11-19T02:42:50;11.60;99.90
53146;DHT22;39042;53.150;5.898;2023-11-19T02:45:17;11.60;99.90
53146;DHT22;39042;53.150;5.898;2023-11-19T02:47:43;11.60;99.90
53146;DHT22;39042;53.150;5.898;2023-11-19T02:50:13;11.60;99.90
53146;DHT22;39042;53.150;5.898;2023-11-19T02:52:43;11.60;99.90
53146;DHT22;39042;53.150;5.898;2023-11-19T02:55:10;11.60;99.90
53146;DHT22;39042;53.150;5.898;2023-11-19T02:57:42;11.70;99.90
53146;DHT22;39042;53.150;5.898;2023-11-19T03:00:22;11.70;99.90
53146;DHT22;39042;53.150;5.898;2023-11-19T03:02:59;11.70;99.90
53146;DHT22;39042;53.150;5.898;2023-11-19T03:05:31;11.70;99.90
53146;DHT22;39042;53.150;5.898;2023-11-19T03:07:57;11.80;99.90
53146;DHT22;39042;53.150;5.898;2023-11-19T03:10:23;11.80;99.90
53146;DHT22;39042;53.150;5.898;2023-11-19T03:12:49;11.80;99.90
53146;DHT22;39042;53.150;5.898;2023-11-19T03:15:15;11.90;99.90
53146;DHT22;39042;53.150;5.898;2023-11-19T03:17:42;11.90;99.90
53146;DHT22;39042;53.150;5.898;2023-11-19T03:20:10;11.90;99.90
53146;DHT22;39042;53.150;5.898;2023-11-19T03:22:37;12.00;99.90
53146;DHT22;39042;53.150;5.898;2023-11-19T03:25:03;12.00;99.90
53146;DHT22;39042;53.150;5.898;2023-11-19T03:27:29;12.10;99.90
53146;DHT22;39042;53.150;5.898;2023-11-19T03:29:55;12.10;99.90
53146;DHT22;39042;53.150;5.898;2023-11-19T03:32:21;12.00;99.90
53146;DHT22;39042;53.150;5.898;2023-11-19T03:34:46;12.10;99.90
53146;DHT22;39042;53.150;5.898;2023-11-19T03:37:12;12.10;99.90
53146;DHT22;39042;53.150;5.898;2023-11-19T03:39:43;12.00;99.90
53146;DHT22;39042;53.150;5.898;2023-11-19T03:42:11;12.10;99.90
53146;DHT22;39042;53.150;5.898;2023-11-19T03:44:39;12.00;99.90
53146;DHT22;39042;53.150;5.898;2023-11-19T03:47:04;12.00;99.90
53146;DHT22;39042;53.150;5.898;2023-11-19T03:49:30;12.00;99.90
53146;DHT22;39042;53.150;5.898;2023-11-19T03:51:56;11.90;99.90
53146;DHT22;39042;53.150;5.898;2023-11-19T03:54:22;11.80;99.90
53146;DHT22;39042;53.150;5.898;2023-11-19T03:56:49;11.70;99.90
53146;DHT22;39042;53.150;5.898;2023-11-19T03:59:14;11.70;99.90
53146;DHT22;39042;53.150;5.898;2023-11-19T04:01:41;11.60;99.90
53146;DHT22;39042;53.150;5.898;2023-11-19T04:04:07;11.50;99.90
53146;DHT22;39042;53.150;5.898;2023-11-19T04:06:32;11.50;99.90
53146;DHT22;39042;53.150;5.898;2023-11-19T04:08:58;11.40;99.90
53146;DHT22;39042;53.150;5.898;2023-11-19T04:11:24;11.40;99.90
53146;DHT22;39042;53.150;5.898;2023-11-19T04:13:50;11.30;99.90
53146;DHT22;39042;53.150;5.898;2023-11-19T04:16:16;11.30;99.90
53146;DHT22;39042;53.150;5.898;2023-11-19T04:18:41;11.30;99.90
53146;DHT22;39042;53.150;5.898;2023-11-19T04:21:07;11.30;99.90
53146;DHT22;39042;53.150;5.898;2023-11-19T04:23:33;11.30;99.90
53146;DHT22;39042;53.150;5.898;2023-11-19T04:26:02;11.30;99.90
53146;DHT22;39042;53.150;5.898;2023-11-19T04:28:29;11.30;99.90
53146;DHT22;39042;53.150;5.898;2023-11-19T04:30:55;11.30;99.90
53146;DHT22;39042;53.150;5.898;2023-11-19T04:33:21;11.40;99.90
53146;DHT22;39042;53.150;5.898;2023-11-19T04:35:47;11.40;99.90
53146;DHT22;39042;53.150;5.898;2023-11-19T04:38:13;11.40;99.90
53146;DHT22;39042;53.150;5.898;2023-11-19T04:40:40;11.50;99.90
53146;DHT22;39042;53.150;5.898;2023-11-19T04:43:05;11.50;99.90
53146;DHT22;39042;53.150;5.898;2023-11-19T04:45:32;11.50;99.90
53146;DHT22;39042;53.150;5.898;2023-11-19T04:47:58;11.50;99.90
53146;DHT22;39042;53.150;5.898;2023-11-19T04:50:24;11.50;99.90
53146;DHT22;39042;53.150;5.898;2023-11-19T04:52:52;11.50;99.90
53146;DHT22;39042;53.150;5.898;2023-11-19T04:55:19;11.50;99.90
53146;DHT22;39042;53.150;5.898;2023-11-19T04:57:45;11.50;99.90
53146;DHT22;39042;53.150;5.898;2023-11-19T05:00:11;11.60;99.90
53146;DHT22;39042;53.150;5.898;2023-11-19T05:02:37;11.60;99.90
53146;DHT22;39042;53.150;5.898;2023-11-19T05:05:03;11.60;99.90
53146;DHT22;39042;53.150;5.898;2023-11-19T05:07:30;11.60;99.90
53146;DHT22;39042;53.150;5.898;2023-11-19T05:09:56;11.60;99.90
53146;DHT22;39042;53.150;5.898;2023-11-19T05:12:23;11.60;99.90
53146;DHT22;39042;53.150;5.898;2023-11-19T05:14:49;11.50;99.90
53146;DHT22;39042;53.150;5.898;2023-11-19T05:17:17;11.60;99.90
53146;DHT22;39042;53.150;5.898;2023-11-19T05:19:46;11.60;99.90
53146;DHT22;39042;53.150;5.898;2023-11-19T05:22:13;11.60;99.90
53146;DHT22;39042;53.150;5.898;2023-11-19T05:24:39;11.70;99.90
53146;DHT22;39042;53.150;5.898;2023-11-19T05:27:06;11.60;99.90
53146;DHT22;39042;53.150;5.898;2023-11-19T05:29:33;11.60;99.90
53146;DHT22;39042;53.150;5.898;2023-11-19T05:31:59;11.60;99.90
53146;DHT22;39042;53.150;5.898;2023-11-19T05:34:25;11.60;99.90
53146;DHT22;39042;53.150;5.898;2023-11-19T05:36:51;11.60;99.90
53146;DHT22;39042;53.150;5.898;2023-11-19T05:39:17;11.60;99.90
53146;DHT22;39042;53.150;5.898;2023-11-19T05:41:44;11.60;99.90
53146;DHT22;39042;53.150;5.898;2023-11-19T05:44:10;11.60;99.90
53146;DHT22;39042;53.150;5.898;2023-11-19T05:46:35;11.60;99.90
53146;DHT22;39042;53.150;5.898;2023-11-19T05:49:10;11.60;99.90
53146;DHT22;39042;53.150;5.898;2023-11-19T05:51:40;11.60;99.90
53146;DHT22;39042;53.150;5.898;2023-11-19T05:54:14;11.60;99.90
53146;DHT22;39042;53.150;5.898;2023-11-19T06:41:30;11.50;99.90
53146;DHT22;39042;53.150;5.898;2023-11-19T06:45:27;11.50;99.90
53146;DHT22;39042;53.150;5.898;2023-11-19T06:52:53;11.40;99.90
53146;DHT22;39042;53.150;5.898;2023-11-19T06:56:29;11.40;99.90
53146;DHT22;39042;53.150;5.898;2023-11-19T07:00:03;11.40;99.90
53146;DHT22;39042;53.150;5.898;2023-11-19T07:07:10;11.40;99.90
53146;DHT22;39042;53.150;5.898;2023-11-19T07:10:09;11.50;99.90
53146;DHT22;39042;53.150;5.898;2023-11-19T07:13:45;11.50;99.90
53146;DHT22;39042;53.150;5.898;2023-11-19T07:21:17;11.40;99.90
53146;DHT22;39042;53.150;5.898;2023-11-19T07:24:24;11.40;99.90
53146;DHT22;39042;53.150;5.898;2023-11-19T07:30:59;11.30;99.90
53146;DHT22;39042;53.150;5.898;2023-11-19T07:34:25;11.30;99.90
53146;DHT22;39042;53.150;5.898;2023-11-19T08:00:39;11.40;99.90
53146;DHT22;39042;53.150;5.898;2023-11-19T08:15:16;11.50;99.90
53146;DHT22;39042;53.150;5.898;2023-11-19T08:29:45;11.40;99.90
53146;DHT22;39042;53.150;5.898;2023-11-19T08:37:13;11.40;99.90
53146;DHT22;39042;53.150;5.898;2023-11-19T08:41:03;11.40;99.90
53146;DHT22;39042;53.150;5.898;2023-11-19T08:44:40;11.50;99.90
53146;DHT22;39042;53.150;5.898;2023-11-19T08:55:50;11.60;99.90
53146;DHT22;39042;53.150;5.898;2023-11-19T09:13:54;12.10;99.90
53146;DHT22;39042;53.150;5.898;2023-11-19T09:42:52;12.30;99.90
53146;DHT22;39042;53.150;5.898;2023-11-19T09:54:01;12.40;99.90
53146;DHT22;39042;53.150;5.898;2023-11-19T10:19:53;12.50;99.90
53146;DHT22;39042;53.150;5.898;2023-11-19T10:22:23;12.50;99.90
53146;DHT22;39042;53.150;5.898;2023-11-19T10:40:37;12.80;99.90
53146;DHT22;39042;53.150;5.898;2023-11-19T10:43:07;12.80;99.90
53146;DHT22;39042;53.150;5.898;2023-11-19T10:45:35;12.80;99.90
53146;DHT22;39042;53.150;5.898;2023-11-19T10:48:02;12.80;99.90
53146;DHT22;39042;53.150;5.898;2023-11-19T10:50:46;12.90;99.90
53146;DHT22;39042;53.150;5.898;2023-11-19T10:53:25;13.00;99.90
53146;DHT22;39042;53.150;5.898;2023-11-19T10:56:05;13.00;99.90
53146;DHT22;39042;53.150;5.898;2023-11-19T10:59:04;13.00;99.90
53146;DHT22;39042;53.150;5.898;2023-11-19T11:45:47;12.90;99.90
53146;DHT22;39042;53.150;5.898;2023-11-19T11:48:16;12.90;99.90
53146;DHT22;39042;53.150;5.898;2023-11-19T11:50:57;12.90;99.90
53146;DHT22;39042;53.150;5.898;2023-11-19T11:53:46;13.00;99.90
53146;DHT22;39042;53.150;5.898;2023-11-19T12:00:32;13.10;99.90
53146;DHT22;39042;53.150;5.898;2023-11-19T12:07:25;13.20;99.90
53146;DHT22;39042;53.150;5.898;2023-11-19T13:02:13;13.20;99.90
53146;DHT22;39042;53.150;5.898;2023-11-19T13:04:39;13.20;99.90
53146;DHT22;39042;53.150;5.898;2023-11-19T13:07:05;13.20;99.90
53146;DHT22;39042;53.150;5.898;2023-11-19T13:09:31;13.20;99.90
53146;DHT22;39042;53.150;5.898;2023-11-19T13:11:57;13.20;99.90
53146;DHT22;39042;53.150;5.898;2023-11-19T13:14:23;13.10;99.90
53146;DHT22;39042;53.150;5.898;2023-11-19T13:17:02;13.10;99.90
53146;DHT22;39042;53.150;5.898;2023-11-19T13:19:27;13.00;99.90
53146;DHT22;39042;53.150;5.898;2023-11-19T13:21:53;13.00;99.90
53146;DHT22;39042;53.150;5.898;2023-11-19T13:24:19;13.00;99.90
53146;DHT22;39042;53.150;5.898;2023-11-19T13:26:45;13.00;99.90
53146;DHT22;39042;53.150;5.898;2023-11-19T13:29:11;12.90;99.90
53146;DHT22;39042;53.150;5.898;2023-11-19T13:31:37;12.90;99.90
53146;DHT22;39042;53.150;5.898;2023-11-19T13:34:04;12.90;99.90
53146;DHT22;39042;53.150;5.898;2023-11-19T13:36:30;12.90;99.90
53146;DHT22;39042;53.150;5.898;2023-11-19T13:38:56;12.80;99.90
53146;DHT22;39042;53.150;5.898;2023-11-19T13:41:27;12.80;99.90
53146;DHT22;39042;53.150;5.898;2023-11-19T13:43:53;12.80;99.90
53146;DHT22;39042;53.150;5.898;2023-11-19T13:46:20;12.80;99.90
53146;DHT22;39042;53.150;5.898;2023-11-19T13:48:46;12.80;99.90
53146;DHT22;39042;53.150;5.898;2023-11-19T13:51:15;12.80;99.90
53146;DHT22;39042;53.150;5.898;2023-11-19T13:53:41;12.80;99.90
53146;DHT22;39042;53.150;5.898;2023-11-19T13:56:07;12.70;99.90
53146;DHT22;39042;53.150;5.898;2023-11-19T13:58:33;12.70;99.90
53146;DHT22;39042;53.150;5.898;2023-11-19T14:01:00;12.70;99.90
53146;DHT22;39042;53.150;5.898;2023-11-19T14:03:27;12.70;99.90
53146;DHT22;39042;53.150;5.898;2023-11-19T14:05:53;12.70;99.90
53146;DHT22;39042;53.150;5.898;2023-11-19T14:08:20;12.70;99.90
53146;DHT22;39042;53.150;5.898;2023-11-19T14:10:46;12.70;99.90
53146;DHT22;39042;53.150;5.898;2023-11-19T14:13:12;12.60;99.90
53146;DHT22;39042;53.150;5.898;2023-11-19T14:15:41;12.60;99.90
53146;DHT22;39042;53.150;5.898;2023-11-19T14:18:08;12.60;99.90
53146;DHT22;39042;53.150;5.898;2023-11-19T14:20:33;12.50;99.90
53146;DHT22;39042;53.150;5.898;2023-11-19T14:23:01;12.50;99.90
53146;DHT22;39042;53.150;5.898;2023-11-19T14:25:27;12.40;99.90
53146;DHT22;39042;53.150;5.898;2023-11-19T14:27:53;12.40;99.90
53146;DHT22;39042;53.150;5.898;2023-11-19T14:30:18;12.30;99.90
53146;DHT22;39042;53.150;5.898;2023-11-19T14:32:44;12.30;99.90
53146;DHT22;39042;53.150;5.898;2023-11-19T14:35:12;12.30;99.90
53146;DHT22;39042;53.150;5.898;2023-11-19T14:37:38;12.30;99.90
53146;DHT22;39042;53.150;5.898;2023-11-19T14:40:04;12.30;99.90
53146;DHT22;39042;53.150;5.898;2023-11-19T14:42:31;12.30;99.90
53146;DHT22;39042;53.150;5.898;2023-11-19T14:44:57;12.30;99.90
53146;DHT22;39042;53.150;5.898;2023-11-19T14:47:24;12.30;99.90
53146;DHT22;39042;53.150;5.898;2023-11-19T14:49:50;12.20;99.90
53146;DHT22;39042;53.150;5.898;2023-11-19T14:52:17;12.20;99.90
53146;DHT22;39042;53.150;5.898;2023-11-19T14:54:45;12.20;99.90
53146;DHT22;39042;53.150;5.898;2023-11-19T14:57:12;12.10;99.90
53146;DHT22;39042;53.150;5.898;2023-11-19T14:59:38;12.10;99.90
53146;DHT22;39042;53.150;5.898;2023-11-19T15:02:04;12.10;99.90
53146;DHT22;39042;53.150;5.898;2023-11-19T15:04:31;12.10;99.90
53146;DHT22;39042;53.150;5.898;2023-11-19T15:07:00;12.10;99.90
53146;DHT22;39042;53.150;5.898;2023-11-19T15:09:26;12.10;99.90
53146;DHT22;39042;53.150;5.898;2023-11-19T15:11:56;12.10;99.90
53146;DHT22;39042;53.150;5.898;2023-11-19T15:14:24;12.10;99.90
53146;DHT22;39042;53.150;5.898;2023-11-19T15:16:49;12.10;99.90
53146;DHT22;39042;53.150;5.898;2023-11-19T15:19:17;12.10;99.90
53146;DHT22;39042;53.150;5.898;2023-11-19T15:21:43;12.00;99.90
53146;DHT22;39042;53.150;5.898;2023-11-19T15:24:09;12.00;99.90
53146;DHT22;39042;53.150;5.898;2023-11-19T15:26:36;11.90;99.90
53146;DHT22;39042;53.150;5.898;2023-11-19T15:29:05;11.80;99.90
53146;DHT22;39042;53.150;5.898;2023-11-19T15:31:31;11.70;99.90
53146;DHT22;39042;53.150;5.898;2023-11-19T15:33:58;11.70;99.90
53146;DHT22;39042;53.150;5.898;2023-11-19T15:36:24;11.60;99.90
53146;DHT22;39042;53.150;5.898;2023-11-19T15:38:50;11.60;99.90
53146;DHT22;39042;53.150;5.898;2023-11-19T15:41:15;11.50;99.90
53146;DHT22;39042;53.150;5.898;2023-11-19T15:43:42;11.50;99.90
53146;DHT22;39042;53.150;5.898;2023-11-19T15:46:09;11.50;99.90
53146;DHT22;39042;53.150;5.898;2023-11-19T15:48:35;11.50;99.90
53146;DHT22;39042;53.150;5.898;2023-11-19T15:51:01;11.50;99.90
53146;DHT22;39042;53.150;5.898;2023-11-19T15:53:28;11.50;99.90
53146;DHT22;39042;53.150;5.898;2023-11-19T15:55:54;11.50;99.90
53146;DHT22;39042;53.150;5.898;2023-11-19T15:58:20;11.40;99.90
53146;DHT22;39042;53.150;5.898;2023-11-19T16:00:48;11.50;99.90
53146;DHT22;39042;53.150;5.898;2023-11-19T16:03:14;11.50;99.90
53146;DHT22;39042;53.150;5.898;2023-11-19T16:05:40;11.50;99.90
53146;DHT22;39042;53.150;5.898;2023-11-19T16:08:06;11.50;99.90
53146;DHT22;39042;53.150;5.898;2023-11-19T16:10:33;11.50;99.90
53146;DHT22;39042;53.150;5.898;2023-11-19T16:12:59;11.50;99.90
53146;DHT22;39042;53.150;5.898;2023-11-19T16:15:25;11.50;99.90
53146;DHT22;39042;53.150;5.898;2023-11-19T16:17:51;11.50;99.90
53146;DHT22;39042;53.150;5.898;2023-11-19T16:20:17;11.50;99.90
53146;DHT22;39042;53.150;5.898;2023-11-19T16:22:42;11.50;99.90
53146;DHT22;39042;53.150;5.898;2023-11-19T16:25:09;11.50;99.90
53146;DHT22;39042;53.150;5.898;2023-11-19T16:27:35;11.40;99.90
53146;DHT22;39042;53.150;5.898;2023-11-19T16:30:01;11.40;99.90
53146;DHT22;39042;53.150;5.898;2023-11-19T16:32:30;11.40;99.90
53146;DHT22;39042;53.150;5.898;2023-11-19T16:34:56;11.40;99.90
53146;DHT22;39042;53.150;5.898;2023-11-19T16:37:22;11.30;99.90
53146;DHT22;39042;53.150;5.898;2023-11-19T16:39:48;11.30;99.90
53146;DHT22;39042;53.150;5.898;2023-11-19T16:42:14;11.30;99.90
53146;DHT22;39042;53.150;5.898;2023-11-19T16:44:41;11.30;99.90
53146;DHT22;39042;53.150;5.898;2023-11-19T16:47:06;11.30;99.90
53146;DHT22;39042;53.150;5.898;2023-11-19T16:49:33;11.30;99.90
53146;DHT22;39042;53.150;5.898;2023-11-19T16:52:02;11.30;99.90
53146;DHT22;39042;53.150;5.898;2023-11-19T16:54:30;11.30;99.90
53146;DHT22;39042;53.150;5.898;2023-11-19T16:56:57;11.30;99.90
53146;DHT22;39042;53.150;5.898;2023-11-19T16:59:23;11.30;99.90
53146;DHT22;39042;53.150;5.898;2023-11-19T17:01:49;11.30;99.90
53146;DHT22;39042;53.150;5.898;2023-11-19T17:04:16;11.30;99.90
53146;DHT22;39042;53.150;5.898;2023-11-19T17:06:42;11.20;99.90
53146;DHT22;39042;53.150;5.898;2023-11-19T17:09:09;11.30;99.90
53146;DHT22;39042;53.150;5.898;2023-11-19T17:11:41;11.20;99.90
53146;DHT22;39042;53.150;5.898;2023-11-19T17:14:09;11.20;99.90
53146;DHT22;39042;53.150;5.898;2023-11-19T17:16:35;11.20;99.90
53146;DHT22;39042;53.150;5.898;2023-11-19T17:19:07;11.20;99.90
53146;DHT22;39042;53.150;5.898;2023-11-19T17:21:33;11.10;99.90
53146;DHT22;39042;53.150;5.898;2023-11-19T17:23:59;11.10;99.90
53146;DHT22;39042;53.150;5.898;2023-11-19T17:26:25;11.10;99.90
53146;DHT22;39042;53.150;5.898;2023-11-19T17:28:51;11.10;99.90
53146;DHT22;39042;53.150;5.898;2023-11-19T17:31:17;11.10;99.90
53146;DHT22;39042;53.150;5.898;2023-11-19T17:33:43;11.10;99.90
53146;DHT22;39042;53.150;5.898;2023-11-19T17:36:09;11.10;99.90
53146;DHT22;39042;53.150;5.898;2023-11-19T17:38:35;11.00;99.90
53146;DHT22;39042;53.150;5.898;2023-11-19T17:41:01;11.00;99.90
53146;DHT22;39042;53.150;5.898;2023-11-19T17:43:28;11.00;99.90
53146;DHT22;39042;53.150;5.898;2023-11-19T17:45:53;11.00;99.90
53146;DHT22;39042;53.150;5.898;2023-11-19T17:48:22;11.00;99.90
53146;DHT22;39042;53.150;5.898;2023-11-19T17:50:48;11.00;99.90
53146;DHT22;39042;53.150;5.898;2023-11-19T17:53:14;11.00;99.90
53146;DHT22;39042;53.150;5.898;2023-11-19T17:55:39;11.00;99.90
53146;DHT22;39042;53.150;5.898;2023-11-19T17:58:06;11.00;99.90
53146;DHT22;39042;53.150;5.898;2023-11-19T18:00:32;11.00;99.90
53146;DHT22;39042;53.150;5.898;2023-11-19T18:02:58;11.00;99.90
53146;DHT22;39042;53.150;5.898;2023-11-19T18:05:24;11.00;99.90
53146;DHT22;39042;53.150;5.898;2023-11-19T18:07:50;11.00;99.90
53146;DHT22;39042;53.150;5.898;2023-11-19T18:10:16;11.00;99.90
53146;DHT22;39042;53.150;5.898;2023-11-19T18:12:42;11.00;99.90
53146;DHT22;39042;53.150;5.898;2023-11-19T18:15:09;11.00;99.90
53146;DHT22;39042;53.150;5.898;2023-11-19T18:17:38;11.00;99.90
53146;DHT22;39042;53.150;5.898;2023-11-19T18:20:09;11.00;99.90
53146;DHT22;39042;53.150;5.898;2023-11-19T18:22:38;11.00;99.90
53146;DHT22;39042;53.150;5.898;2023-11-19T18:25:04;11.00;99.90
53146;DHT22;39042;53.150;5.898;2023-11-19T18:27:30;11.00;99.90
53146;DHT22;39042;53.150;5.898;2023-11-19T18:29:57;11.00;99.90
53146;DHT22;39042;53.150;5.898;2023-11-19T18:32:23;11.00;99.90
53146;DHT22;39042;53.150;5.898;2023-11-19T18:34:49;11.00;99.90
53146;DHT22;39042;53.150;5.898;2023-11-19T18:37:15;11.00;99.90
53146;DHT22;39042;53.150;5.898;2023-11-19T18:39:41;11.00;99.90
53146;DHT22;39042;53.150;5.898;2023-11-19T18:42:07;11.10;99.90
53146;DHT22;39042;53.150;5.898;2023-11-19T18:44:33;11.10;99.90
53146;DHT22;39042;53.150;5.898;2023-11-19T18:47:00;11.10;99.90
53146;DHT22;39042;53.150;5.898;2023-11-19T18:49:26;11.10;99.90
53146;DHT22;39042;53.150;5.898;2023-11-19T18:51:52;11.10;99.90
53146;DHT22;39042;53.150;5.898;2023-11-19T18:54:18;11.10;99.90
53146;DHT22;39042;53.150;5.898;2023-11-19T18:56:47;11.10;99.90
53146;DHT22;39042;53.150;5.898;2023-11-19T18:59:13;11.20;99.90
53146;DHT22;39042;53.150;5.898;2023-11-19T19:01:39;11.10;99.90
53146;DHT22;39042;53.150;5.898;2023-11-19T19:04:08;11.20;99.90
53146;DHT22;39042;53.150;5.898;2023-11-19T19:06:38;11.20;99.90
53146;DHT22;39042;53.150;5.898;2023-11-19T19:09:04;11.20;99.90
53146;DHT22;39042;53.150;5.898;2023-11-19T19:11:30;11.20;99.90
53146;DHT22;39042;53.150;5.898;2023-11-19T19:13:57;11.20;99.90
53146;DHT22;39042;53.150;5.898;2023-11-19T19:16:23;11.30;99.90
53146;DHT22;39042;53.150;5.898;2023-11-19T19:18:49;11.20;99.90
53146;DHT22;39042;53.150;5.898;2023-11-19T19:21:15;11.30;99.90
53146;DHT22;39042;53.150;5.898;2023-11-19T19:23:41;11.30;99.90
53146;DHT22;39042;53.150;5.898;2023-11-19T19:26:09;11.30;99.90
53146;DHT22;39042;53.150;5.898;2023-11-19T19:28:36;11.30;99.90
53146;DHT22;39042;53.150;5.898;2023-11-19T19:31:07;11.30;99.90
53146;DHT22;39042;53.150;5.898;2023-11-19T19:33:33;11.30;99.90
53146;DHT22;39042;53.150;5.898;2023-11-19T19:35:58;11.40;99.90
53146;DHT22;39042;53.150;5.898;2023-11-19T19:38:24;11.40;99.90
53146;DHT22;39042;53.150;5.898;2023-11-19T19:40:51;11.40;99.90
53146;DHT22;39042;53.150;5.898;2023-11-19T19:43:17;11.40;99.90
53146;DHT22;39042;53.150;5.898;2023-11-19T19:45:43;11.40;99.90
53146;DHT22;39042;53.150;5.898;2023-11-19T19:48:08;11.40;99.90
53146;DHT22;39042;53.150;5.898;2023-11-19T19:50:35;11.40;99.90
53146;DHT22;39042;53.150;5.898;2023-11-19T19:53:01;11.50;99.90
53146;DHT22;39042;53.150;5.898;2023-11-19T19:55:27;11.50;99.90
53146;DHT22;39042;53.150;5.898;2023-11-19T19:57:53;11.50;99.90
53146;DHT22;39042;53.150;5.898;2023-11-19T20:00:19;11.50;99.90
53146;DHT22;39042;53.150;5.898;2023-11-19T20:02:45;11.60;99.90
53146;DHT22;39042;53.150;5.898;2023-11-19T20:05:11;11.60;99.90
53146;DHT22;39042;53.150;5.898;2023-11-19T20:07:38;11.60;99.90
53146;DHT22;39042;53.150;5.898;2023-11-19T20:10:04;11.60;99.90
53146;DHT22;39042;53.150;5.898;2023-11-19T20:12:31;11.60;99.90
53146;DHT22;39042;53.150;5.898;2023-11-19T20:14:57;11.70;99.90
53146;DHT22;39042;53.150;5.898;2023-11-19T20:17:27;11.60;99.90
53146;DHT22;39042;53.150;5.898;2023-11-19T20:19:53;11.70;99.90
53146;DHT22;39042;53.150;5.898;2023-11-19T20:22:19;11.70;99.90
53146;DHT22;39042;53.150;5.898;2023-11-19T20:24:45;11.70;99.90
53146;DHT22;39042;53.150;5.898;2023-11-19T20:27:11;11.70;99.90
53146;DHT22;39042;53.150;5.898;2023-11-19T20:29:44;11.70;99.90
53146;DHT22;39042;53.150;5.898;2023-11-19T20:32:10;11.80;99.90
53146;DHT22;39042;53.150;5.898;2023-11-19T20:34:36;11.80;99.90
53146;DHT22;39042;53.150;5.898;2023-11-19T20:37:02;11.80;99.90
53146;DHT22;39042;53.150;5.898;2023-11-19T20:39:28;11.80;99.90
53146;DHT22;39042;53.150;5.898;2023-11-19T20:41:54;11.80;99.90
53146;DHT22;39042;53.150;5.898;2023-11-19T20:44:20;11.80;99.90
53146;DHT22;39042;53.150;5.898;2023-11-19T20:46:46;11.80;99.90
53146;DHT22;39042;53.150;5.898;2023-11-19T20:49:12;11.80;99.90
53146;DHT22;39042;53.150;5.898;2023-11-19T20:51:38;11.80;99.90
53146;DHT22;39042;53.150;5.898;2023-11-19T20:54:05;11.80;99.90
53146;DHT22;39042;53.150;5.898;2023-11-19T20:56:32;11.80;99.90
53146;DHT22;39042;53.150;5.898;2023-11-19T20:58:57;11.80;99.90
53146;DHT22;39042;53.150;5.898;2023-11-19T21:01:26;11.80;99.90
53146;DHT22;39042;53.150;5.898;2023-11-19T21:03:52;11.80;99.90
53146;DHT22;39042;53.150;5.898;2023-11-19T21:06:18;11.90;99.90
53146;DHT22;39042;53.150;5.898;2023-11-19T21:08:45;11.90;99.90
53146;DHT22;39042;53.150;5.898;2023-11-19T21:11:11;11.90;99.90
53146;DHT22;39042;53.150;5.898;2023-11-19T21:13:38;11.90;99.90
53146;DHT22;39042;53.150;5.898;2023-11-19T21:16:04;11.90;99.90
53146;DHT22;39042;53.150;5.898;2023-11-19T21:18:30;11.90;99.90
53146;DHT22;39042;53.150;5.898;2023-11-19T21:20:55;11.90;99.90
53146;DHT22;39042;53.150;5.898;2023-11-19T21:23:22;11.90;99.90
53146;DHT22;39042;53.150;5.898;2023-11-19T21:25:48;11.90;99.90
53146;DHT22;39042;53.150;5.898;2023-11-19T21:28:14;11.90;99.90
53146;DHT22;39042;53.150;5.898;2023-11-19T21:30:40;11.90;99.90
53146;DHT22;39042;53.150;5.898;2023-11-19T21:33:07;12.00;99.90
53146;DHT22;39042;53.150;5.898;2023-11-19T21:35:33;12.00;99.90
53146;DHT22;39042;53.150;5.898;2023-11-19T21:37:59;12.00;99.90
53146;DHT22;39042;53.150;5.898;2023-11-19T21:40:25;12.00;99.90
53146;DHT22;39042;53.150;5.898;2023-11-19T21:42:51;12.00;99.90
53146;DHT22;39042;53.150;5.898;2023-11-19T21:45:17;12.00;99.90
53146;DHT22;39042;53.150;5.898;2023-11-19T21:47:43;12.00;99.90
53146;DHT22;39042;53.150;5.898;2023-11-19T21:50:09;12.00;99.90
53146;DHT22;39042;53.150;5.898;2023-11-19T21:52:36;12.00;99.90